Pos First Name Last Name YOB Country Start
Num
Time Run T1 Bike T2 Run
1 Edi Frauchiger 1973 SUI 258 06:55:46 00:35:34 00:01:09 04:09:18 00:01:43 02:08:03
2 Nicholas Watson 1974 USA 263 07:06:50 00:35:31 00:01:07 04:22:29 00:02:13 02:05:32
3 Stephan Leuendorff 1973 GER 281 07:10:20 00:38:02 00:01:44 04:12:49 00:02:32 02:15:13
4 Martin Rutishauser 1972 SUI 259 07:26:53 00:36:50 00:01:35 04:29:40 00:02:55 02:15:53
5 Simon Brace 1973 GBR 274 07:31:47 00:37:47 00:01:44 04:37:58 00:02:41 02:11:37
6 Grahame Mckenzie 1971 GBR 276 07:33:36 00:42:12 00:02:12 04:21:48 00:02:25 02:24:59
7 Cy Gearing 1971 GBR 275 07:34:10 00:39:19 00:01:17 04:34:04 00:02:07 02:17:23
8 Roger Burch 1974 SUI 257 07:54:37 00:39:03 00:01:23 04:38:56 00:02:56 02:32:19
9 Thomas Hölzl 1971 GER 280 07:57:16 00:43:17 00:04:26 04:37:40 00:04:41 02:27:11
10 Dimitri Gelders 1974 BEL 265 08:03:25 00:39:40 00:02:09 04:45:03 00:02:48 02:33:46
11 Markus Zeder 1973 SUI 260 08:22:28 00:42:28 00:02:16 05:03:59 00:05:11 02:28:34
12 Jesus Carretero Lizan ESP 342 08:25:21 00:41:30 00:03:07 05:15:15 00:08:19 02:17:10
13 Markku Savolainen 1972 FIN 271 08:41:06 00:44:08 00:01:56 05:03:31 00:03:09 02:48:21
14 Darren Nice 1972 GBR 277 08:54:19 00:46:33 00:02:15 05:12:44 00:04:01 02:48:47
15 Jean-Luc Mejane 1971 CAN 268 08:58:52 00:45:26 00:01:52 05:13:32 00:08:19 02:49:42
16 Derek Wimmer 1972 USA 264 09:15:16 00:47:30 00:03:29 05:12:39 00:05:48 03:05:51
17 Matthew Tithecott 1971 GBR 279 09:43:18 00:46:08 00:02:14 05:58:17 00:02:59 02:53:41
18 Gary Simpson 1970 GBR 278 10:02:54 00:53:21 00:02:46 05:55:41 00:04:48 03:06:20
DNF Stefan Gremmens 1973 BEL 266 DNF 00:42:06 00:01:43 00:00:00 00:00:00 00:00:00
DNF Tom Van Driessche 1974 BEL 267 DNF 00:37:06 00:01:52 04:22:40 00:02:06 00:00:00
DNF Steen Jespersen 1970 DEN 270 DNF 00:00:00 00:00:00 00:00:00 00:00:00 00:00:00
DNF Johan Friedrich Claassen 1971 RSA 283 DNF 00:47:08 00:01:48 00:00:00 00:00:00 00:00:00
Program notes:

Technical Delegate: Dirk Bogaert/BEL. Head Referee: Betina Kückels - Viehl/GER. Competition Jury: Dirk Bogaert/BEL, Michael Kumli/SUI, Ahmed Nasser/EGY.
Distances: Run1: 9.6 km(2 laps), Bike 142.7 km (3 laps), Run2: 29.7 km (3 laps)
Air temperature 10ºC. Humidity 90%.